Terminal Aerodrome Forecast
Issued by NWS

Home | Current Version | Previous Version | Text Only | Print | Product List | Glossary On
Versions: 1 2 3 4 5 6 7 8 9 10 11 12 13 14 15 16 17
000
FTAK31 PAJN 211142 RRA
TAFAWG
TAF
PAWG 211142Z 2112/2212 VRB03KT 1/2SM FG OVC001
      TEMPO 2112/2116 1/4SM FG
     FM211800 29004KT 5SM BR FEW001 BKN100
     FM211900 07003KT P6SM SCT001 BKN100
     FM220300 10005KT P6SM -RA SCT030 BKN040 OVC100
      AMD LTD TO CLD VIS AND WIND 2112/2115=

USA.gov is the U.S. government's official web portal to all federal, state and local government web resources and services.